sensor_id;sensor_type;location;lat;lon;timestamp;temperature;humidity
16253;DHT22;8234;41.480;2.306;2022-09-17T00:07:22;20.90;99.90
16253;DHT22;8234;41.480;2.306;2022-09-17T00:17:28;20.90;99.90
16253;DHT22;8234;41.480;2.306;2022-09-17T00:27:32;20.90;99.90
16253;DHT22;8234;41.480;2.306;2022-09-17T00:37:37;21.00;99.90
16253;DHT22;8234;41.480;2.306;2022-09-17T00:47:43;21.00;99.90
16253;DHT22;8234;41.480;2.306;2022-09-17T00:57:51;20.90;99.90
16253;DHT22;8234;41.480;2.306;2022-09-17T01:08:02;20.90;99.90
16253;DHT22;8234;41.480;2.306;2022-09-17T01:18:20;20.80;99.90
16253;DHT22;8234;41.480;2.306;2022-09-17T01:28:37;20.70;99.90
16253;DHT22;8234;41.480;2.306;2022-09-17T01:38:52;20.60;99.90
16253;DHT22;8234;41.480;2.306;2022-09-17T01:49:00;20.60;99.90
16253;DHT22;8234;41.480;2.306;2022-09-17T01:59:12;20.60;99.90
16253;DHT22;8234;41.480;2.306;2022-09-17T02:09:21;20.70;99.90
16253;DHT22;8234;41.480;2.306;2022-09-17T02:19:30;20.70;99.90
16253;DHT22;8234;41.480;2.306;2022-09-17T02:29:38;20.60;99.90
16253;DHT22;8234;41.480;2.306;2022-09-17T02:39:44;20.70;99.90
16253;DHT22;8234;41.480;2.306;2022-09-17T02:50:01;20.80;99.90
16253;DHT22;8234;41.480;2.306;2022-09-17T03:00:13;20.90;99.90
16253;DHT22;8234;41.480;2.306;2022-09-17T03:10:18;20.90;99.90
16253;DHT22;8234;41.480;2.306;2022-09-17T03:20:23;21.00;99.90
16253;DHT22;8234;41.480;2.306;2022-09-17T03:30:27;21.10;99.90
16253;DHT22;8234;41.480;2.306;2022-09-17T03:40:32;21.00;99.90
16253;DHT22;8234;41.480;2.306;2022-09-17T03:50:36;21.00;99.90
16253;DHT22;8234;41.480;2.306;2022-09-17T04:00:41;20.80;99.90
16253;DHT22;8234;41.480;2.306;2022-09-17T04:10:45;20.70;99.90
16253;DHT22;8234;41.480;2.306;2022-09-17T04:20:50;20.30;99.90
16253;DHT22;8234;41.480;2.306;2022-09-17T04:30:54;20.00;99.90
16253;DHT22;8234;41.480;2.306;2022-09-17T04:41:00;19.80;99.90
16253;DHT22;8234;41.480;2.306;2022-09-17T04:51:04;19.70;99.90
16253;DHT22;8234;41.480;2.306;2022-09-17T05:01:09;19.80;99.90
16253;DHT22;8234;41.480;2.306;2022-09-17T05:11:15;19.80;99.90
16253;DHT22;8234;41.480;2.306;2022-09-17T05:21:20;19.50;99.90
16253;DHT22;8234;41.480;2.306;2022-09-17T05:31:24;19.70;99.90
16253;DHT22;8234;41.480;2.306;2022-09-17T05:41:29;19.70;99.90
16253;DHT22;8234;41.480;2.306;2022-09-17T05:51:32;19.60;99.90
16253;DHT22;8234;41.480;2.306;2022-09-17T06:01:37;19.60;99.90
16253;DHT22;8234;41.480;2.306;2022-09-17T06:11:41;19.60;99.90
16253;DHT22;8234;41.480;2.306;2022-09-17T06:21:47;19.70;99.90
16253;DHT22;8234;41.480;2.306;2022-09-17T06:31:53;19.80;99.90
16253;DHT22;8234;41.480;2.306;2022-09-17T06:41:58;19.80;99.90
16253;DHT22;8234;41.480;2.306;2022-09-17T06:52:02;19.80;99.90
16253;DHT22;8234;41.480;2.306;2022-09-17T07:02:08;20.10;99.90
16253;DHT22;8234;41.480;2.306;2022-09-17T07:12:12;20.50;99.90
16253;DHT22;8234;41.480;2.306;2022-09-17T07:22:17;20.50;99.90
16253;DHT22;8234;41.480;2.306;2022-09-17T07:32:21;20.60;99.90
16253;DHT22;8234;41.480;2.306;2022-09-17T07:42:26;20.80;99.90
16253;DHT22;8234;41.480;2.306;2022-09-17T07:52:30;21.20;99.90
16253;DHT22;8234;41.480;2.306;2022-09-17T08:02:35;21.40;99.90
16253;DHT22;8234;41.480;2.306;2022-09-17T08:12:39;21.50;99.90
16253;DHT22;8234;41.480;2.306;2022-09-17T08:22:44;21.20;99.90
16253;DHT22;8234;41.480;2.306;2022-09-17T08:32:54;21.60;99.90
16253;DHT22;8234;41.480;2.306;2022-09-17T08:43:01;21.80;99.90
16253;DHT22;8234;41.480;2.306;2022-09-17T08:53:23;21.70;99.90
16253;DHT22;8234;41.480;2.306;2022-09-17T09:03:41;22.00;99.90
16253;DHT22;8234;41.480;2.306;2022-09-17T09:13:51;22.70;99.90
16253;DHT22;8234;41.480;2.306;2022-09-17T09:24:02;23.00;99.90
16253;DHT22;8234;41.480;2.306;2022-09-17T09:34:08;23.10;99.90
16253;DHT22;8234;41.480;2.306;2022-09-17T09:44:14;23.00;99.90
16253;DHT22;8234;41.480;2.306;2022-09-17T09:54:31;23.80;99.90
16253;DHT22;8234;41.480;2.306;2022-09-17T10:04:39;23.80;99.90
16253;DHT22;8234;41.480;2.306;2022-09-17T10:14:44;24.40;99.90
16253;DHT22;8234;41.480;2.306;2022-09-17T10:24:50;24.90;99.90
16253;DHT22;8234;41.480;2.306;2022-09-17T10:35:00;25.10;99.90
16253;DHT22;8234;41.480;2.306;2022-09-17T10:45:23;25.60;99.90
16253;DHT22;8234;41.480;2.306;2022-09-17T10:55:29;26.00;99.90
16253;DHT22;8234;41.480;2.306;2022-09-17T11:05:48;27.70;99.90
16253;DHT22;8234;41.480;2.306;2022-09-17T11:16:07;28.40;99.90
16253;DHT22;8234;41.480;2.306;2022-09-17T11:26:26;28.10;99.90
16253;DHT22;8234;41.480;2.306;2022-09-17T11:36:40;27.70;99.90
16253;DHT22;8234;41.480;2.306;2022-09-17T11:46:52;28.00;99.90
16253;DHT22;8234;41.480;2.306;2022-09-17T11:57:04;28.50;99.90
16253;DHT22;8234;41.480;2.306;2022-09-17T12:07:21;27.40;99.90
16253;DHT22;8234;41.480;2.306;2022-09-17T12:17:38;27.20;99.90
16253;DHT22;8234;41.480;2.306;2022-09-17T12:27:50;28.00;99.90
16253;DHT22;8234;41.480;2.306;2022-09-17T12:38:08;29.30;99.90
16253;DHT22;8234;41.480;2.306;2022-09-17T12:48:38;30.20;99.90
16253;DHT22;8234;41.480;2.306;2022-09-17T12:59:02;29.20;99.90
16253;DHT22;8234;41.480;2.306;2022-09-17T13:09:34;29.60;99.90
16253;DHT22;8234;41.480;2.306;2022-09-17T13:19:46;30.10;99.90
16253;DHT22;8234;41.480;2.306;2022-09-17T13:30:00;30.60;99.90
16253;DHT22;8234;41.480;2.306;2022-09-17T13:40:05;31.00;99.90
16253;DHT22;8234;41.480;2.306;2022-09-17T13:50:27;29.50;99.90
16253;DHT22;8234;41.480;2.306;2022-09-17T14:00:49;28.40;99.90
16253;DHT22;8234;41.480;2.306;2022-09-17T14:10:57;27.10;99.90
16253;DHT22;8234;41.480;2.306;2022-09-17T14:21:08;27.60;99.90
16253;DHT22;8234;41.480;2.306;2022-09-17T14:31:19;26.30;99.90
16253;DHT22;8234;41.480;2.306;2022-09-17T14:41:26;27.00;99.90
16253;DHT22;8234;41.480;2.306;2022-09-17T14:51:38;26.10;99.90
16253;DHT22;8234;41.480;2.306;2022-09-17T15:01:45;26.00;99.90
16253;DHT22;8234;41.480;2.306;2022-09-17T15:11:53;25.20;99.90
16253;DHT22;8234;41.480;2.306;2022-09-17T15:21:58;25.30;99.90
16253;DHT22;8234;41.480;2.306;2022-09-17T15:32:07;25.50;99.90
16253;DHT22;8234;41.480;2.306;2022-09-17T15:42:19;25.80;99.90
16253;DHT22;8234;41.480;2.306;2022-09-17T15:52:33;25.60;99.90
16253;DHT22;8234;41.480;2.306;2022-09-17T16:02:36;25.30;99.90
16253;DHT22;8234;41.480;2.306;2022-09-17T16:12:42;25.10;99.90
16253;DHT22;8234;41.480;2.306;2022-09-17T16:22:46;25.10;99.90
16253;DHT22;8234;41.480;2.306;2022-09-17T16:32:52;25.00;99.90
16253;DHT22;8234;41.480;2.306;2022-09-17T16:42:59;25.00;99.90
16253;DHT22;8234;41.480;2.306;2022-09-17T16:53:04;24.90;99.90
16253;DHT22;8234;41.480;2.306;2022-09-17T17:03:11;24.70;99.90
16253;DHT22;8234;41.480;2.306;2022-09-17T17:13:17;24.80;99.90
16253;DHT22;8234;41.480;2.306;2022-09-17T17:23:20;24.50;99.90
16253;DHT22;8234;41.480;2.306;2022-09-17T17:33:26;24.30;99.90
16253;DHT22;8234;41.480;2.306;2022-09-17T17:43:29;24.20;99.90
16253;DHT22;8234;41.480;2.306;2022-09-17T17:53:35;24.10;99.90
16253;DHT22;8234;41.480;2.306;2022-09-17T18:03:39;24.00;99.90
16253;DHT22;8234;41.480;2.306;2022-09-17T18:13:44;24.00;99.90
16253;DHT22;8234;41.480;2.306;2022-09-17T18:23:49;24.00;99.90
16253;DHT22;8234;41.480;2.306;2022-09-17T18:33:56;23.90;99.90
16253;DHT22;8234;41.480;2.306;2022-09-17T18:44:00;23.90;99.90
16253;DHT22;8234;41.480;2.306;2022-09-17T18:54:05;23.70;99.90
16253;DHT22;8234;41.480;2.306;2022-09-17T19:04:09;23.60;99.90
16253;DHT22;8234;41.480;2.306;2022-09-17T19:14:14;23.30;99.90
16253;DHT22;8234;41.480;2.306;2022-09-17T19:24:18;23.30;99.90
16253;DHT22;8234;41.480;2.306;2022-09-17T19:34:23;23.30;99.90
16253;DHT22;8234;41.480;2.306;2022-09-17T19:44:27;23.30;99.90
16253;DHT22;8234;41.480;2.306;2022-09-17T19:54:32;23.30;99.90
16253;DHT22;8234;41.480;2.306;2022-09-17T20:04:35;22.90;99.90
16253;DHT22;8234;41.480;2.306;2022-09-17T20:14:41;22.30;99.90
16253;DHT22;8234;41.480;2.306;2022-09-17T20:24:45;22.30;99.90
16253;DHT22;8234;41.480;2.306;2022-09-17T20:34:54;22.30;99.90
16253;DHT22;8234;41.480;2.306;2022-09-17T20:44:58;22.20;99.90
16253;DHT22;8234;41.480;2.306;2022-09-17T20:55:03;22.00;99.90
16253;DHT22;8234;41.480;2.306;2022-09-17T21:05:07;21.70;99.90
16253;DHT22;8234;41.480;2.306;2022-09-17T21:15:14;21.50;99.90
16253;DHT22;8234;41.480;2.306;2022-09-17T21:25:18;21.20;99.90
16253;DHT22;8234;41.480;2.306;2022-09-17T21:35:23;21.20;99.90
16253;DHT22;8234;41.480;2.306;2022-09-17T21:45:31;21.40;99.90
16253;DHT22;8234;41.480;2.306;2022-09-17T21:55:36;21.40;99.90
16253;DHT22;8234;41.480;2.306;2022-09-17T22:05:40;21.40;99.90
16253;DHT22;8234;41.480;2.306;2022-09-17T22:15:54;22.20;99.90
16253;DHT22;8234;41.480;2.306;2022-09-17T22:26:02;22.60;99.90
16253;DHT22;8234;41.480;2.306;2022-09-17T22:36:09;22.60;99.90
16253;DHT22;8234;41.480;2.306;2022-09-17T22:46:15;22.20;99.90
16253;DHT22;8234;41.480;2.306;2022-09-17T22:56:21;21.50;99.90
16253;DHT22;8234;41.480;2.306;2022-09-17T23:06:27;21.20;99.90
16253;DHT22;8234;41.480;2.306;2022-09-17T23:16:35;20.80;99.90
16253;DHT22;8234;41.480;2.306;2022-09-17T23:26:38;20.40;99.90
16253;DHT22;8234;41.480;2.306;2022-09-17T23:36:44;20.20;99.90
16253;DHT22;8234;41.480;2.306;2022-09-17T23:46:48;20.00;99.90
16253;DHT22;8234;41.480;2.306;2022-09-17T23:56:53;19.90;99.90
